Terminal Aerodrome Forecast
Issued by NWS

Home | Current Version | Previous Version | Text Only | Print | Product List | Glossary On
Versions: 1 2 3 4 5 6 7 8 9 10 11 12 13
609
FTUS46 KMTR 230520
TAFMRY
TAF
KMRY 230520Z 2306/2406 26008KT P6SM BKN022
     FM231200 VRB06KT P6SM BKN020
     FM231600 29004KT P6SM SCT020
     FM231800 29008KT P6SM FEW020
     FM240400 24004KT P6SM SCT150=

USA.gov is the U.S. government's official web portal to all federal, state and local government web resources and services.